createdAt,value
2022-09-28T00:01:08.898Z,91.93
2022-09-28T00:03:36.048Z,92.52
2022-09-28T00:06:04.769Z,93.02
2022-09-28T00:08:31.763Z,92.42
2022-09-28T00:10:58.585Z,92.47
2022-09-28T00:13:25.445Z,93.65
2022-09-28T00:16:01.846Z,94.94
2022-09-28T00:18:28.560Z,94.81
2022-09-28T00:21:15.629Z,94.96
2022-09-28T00:24:01.551Z,95.40
2022-09-28T00:26:29.734Z,96.21
2022-09-28T00:29:00.777Z,95.48
2022-09-28T00:31:30.249Z,94.20
2022-09-28T00:33:57.211Z,94.48
2022-09-28T00:36:30.824Z,94.19
2022-09-28T00:38:59.492Z,94.08
2022-09-28T00:41:27.891Z,94.75
2022-09-28T00:44:15.232Z,93.60
2022-09-28T00:46:42.035Z,93.97
2022-09-28T00:49:11.748Z,95.36
2022-09-28T00:51:38.881Z,95.04
2022-09-28T00:54:07.730Z,94.13
2022-09-28T00:56:36.695Z,93.67
2022-09-28T00:59:04.796Z,92.91
2022-09-28T01:01:31.665Z,93.01
2022-09-28T01:03:59.107Z,94.41
2022-09-28T01:06:29.140Z,94.79
2022-09-28T01:08:58.431Z,94.04
2022-09-28T01:11:25.851Z,95.38
2022-09-28T01:13:54.616Z,96.63
2022-09-28T01:16:42.199Z,95.26
2022-09-28T01:19:34.133Z,94.13
2022-09-28T01:22:23.255Z,94.50
2022-09-28T01:24:56.798Z,93.93
2022-09-28T01:27:29.089Z,94.69
2022-09-28T01:30:06.699Z,93.51
2022-09-28T01:32:58.938Z,94.92
2022-09-28T01:35:31.473Z,93.84
2022-09-28T01:38:17.589Z,94.24
2022-09-28T01:40:46.473Z,93.65
2022-09-28T01:43:27.263Z,92.90
2022-09-28T01:46:02.344Z,92.84
2022-09-28T01:48:54.013Z,92.64
2022-09-28T01:51:33.577Z,93.10
2022-09-28T01:54:11.056Z,94.60
2022-09-28T01:56:42.033Z,95.23
2022-09-28T01:59:13.884Z,94.71
2022-09-28T02:01:53.978Z,93.58
2022-09-28T02:04:26.224Z,93.11
2022-09-28T02:06:56.973Z,93.03
2022-09-28T02:09:38.540Z,94.39
2022-09-28T02:12:18.646Z,93.55
2022-09-28T02:14:47.195Z,94.71
2022-09-28T02:17:16.195Z,94.56
2022-09-28T02:19:43.061Z,94.76
2022-09-28T02:22:23.522Z,94.55
2022-09-28T02:24:59.056Z,95.14
2022-09-28T02:27:38.224Z,94.31
2022-09-28T02:30:06.069Z,93.50
2022-09-28T02:32:33.898Z,94.53
2022-09-28T02:35:00.576Z,93.89
2022-09-28T02:37:27.974Z,93.71
2022-09-28T02:39:54.648Z,93.41
2022-09-28T02:42:25.833Z,92.99
2022-09-28T02:45:23.108Z,92.81
2022-09-28T02:48:43.030Z,93.56
2022-09-28T02:51:24.050Z,92.33
2022-09-28T02:53:56.104Z,92.18
2022-09-28T02:56:44.391Z,92.41
2022-09-28T02:59:33.205Z,93.10
2022-09-28T03:02:04.703Z,93.45
2022-09-28T03:04:39.956Z,93.71
2022-09-28T03:07:13.376Z,94.32
2022-09-28T03:09:46.697Z,93.76
2022-09-28T03:12:14.001Z,93.06
2022-09-28T03:14:40.636Z,93.38
2022-09-28T03:17:07.232Z,93.62
2022-09-28T03:19:34.791Z,93.11
2022-09-28T03:22:01.843Z,92.66
2022-09-28T03:24:28.473Z,93.31
2022-09-28T03:26:55.105Z,92.72
2022-09-28T03:29:21.727Z,92.65
2022-09-28T03:31:49.226Z,93.15
2022-09-28T03:34:15.994Z,92.75
2022-09-28T03:36:43.058Z,92.80
2022-09-28T03:39:09.742Z,92.58
2022-09-28T03:41:36.439Z,92.34
2022-09-28T03:44:03.365Z,93.23
2022-09-28T03:46:30.045Z,94.57
2022-09-28T03:48:58.449Z,93.20
2022-09-28T03:51:25.529Z,93.08
2022-09-28T03:53:52.226Z,93.60
2022-09-28T03:56:18.892Z,93.75
2022-09-28T03:58:45.483Z,93.03
2022-09-28T04:01:16.792Z,94.18
2022-09-28T04:03:44.623Z,95.88
2022-09-28T04:06:11.880Z,94.58
2022-09-28T04:08:38.519Z,94.32
2022-09-28T04:11:05.487Z,95.12
2022-09-28T04:13:32.159Z,94.89
2022-09-28T04:16:01.089Z,94.35
2022-09-28T04:18:28.122Z,94.60
2022-09-28T04:21:06.948Z,95.12
2022-09-28T04:23:37.557Z,94.67
2022-09-28T04:26:05.920Z,95.29
2022-09-28T04:28:51.921Z,95.54
2022-09-28T04:31:20.912Z,96.99
2022-09-28T04:33:47.655Z,95.72
2022-09-28T04:36:14.322Z,96.47
2022-09-28T04:38:52.939Z,95.76
2022-09-28T04:41:22.316Z,94.59
2022-09-28T04:43:49.719Z,95.81
2022-09-28T04:46:16.688Z,95.14
2022-09-28T04:48:43.374Z,94.74
2022-09-28T04:51:10.038Z,96.97
2022-09-28T04:53:36.694Z,96.61
2022-09-28T04:56:07.689Z,96.93
2022-09-28T04:58:37.696Z,97.28
2022-09-28T05:01:07.128Z,97.60
2022-09-28T05:03:34.357Z,97.28
2022-09-28T05:06:01.712Z,97.70
2022-09-28T05:08:28.874Z,98.71
2022-09-28T05:11:03.720Z,97.34
2022-09-28T05:13:31.020Z,97.05
2022-09-28T05:16:03.054Z,96.53
2022-09-28T05:18:31.860Z,96.81
2022-09-28T05:20:58.517Z,96.03
2022-09-28T05:23:25.180Z,97.21
2022-09-28T05:25:51.784Z,96.73
2022-09-28T05:28:25.413Z,97.68
2022-09-28T05:30:52.365Z,97.66
2022-09-28T05:33:19.098Z,97.06
2022-09-28T05:35:47.929Z,96.73
2022-09-28T05:38:17.707Z,97.11
2022-09-28T05:40:44.334Z,98.55
2022-09-28T05:43:10.975Z,97.97
2022-09-28T05:45:37.657Z,96.88
2022-09-28T05:48:04.579Z,97.33
2022-09-28T05:50:31.316Z,97.12
2022-09-28T05:53:02.820Z,98.19
2022-09-28T05:55:29.969Z,97.80
2022-09-28T05:58:00.131Z,97.81
2022-09-28T06:00:29.085Z,97.85
2022-09-28T06:02:57.401Z,98.19
2022-09-28T06:05:25.059Z,97.82
2022-09-28T06:07:52.904Z,99.77
2022-09-28T06:10:19.819Z,99.46
2022-09-28T06:12:47.997Z,98.43
2022-09-28T06:15:15.605Z,97.76
2022-09-28T06:17:43.856Z,97.42
2022-09-28T06:20:11.729Z,98.35
2022-09-28T06:22:39.014Z,98.61
2022-09-28T06:25:06.971Z,98.54
2022-09-28T06:27:34.468Z,97.88
2022-09-28T06:30:02.319Z,97.85
2022-09-28T06:32:31.915Z,97.45
2022-09-28T06:34:58.540Z,97.43
2022-09-28T06:37:26.174Z,97.62
2022-09-28T06:39:53.550Z,97.53
2022-09-28T06:42:20.209Z,97.60
2022-09-28T06:44:47.180Z,97.13
2022-09-28T06:47:15.058Z,96.87
2022-09-28T06:49:41.681Z,96.47
2022-09-28T06:52:08.349Z,96.50
2022-09-28T06:54:35.112Z,95.92
2022-09-28T06:57:02.300Z,94.92
2022-09-28T06:59:30.036Z,94.65
2022-09-28T07:01:56.768Z,94.13
2022-09-28T07:04:23.394Z,92.59
2022-09-28T07:06:50.716Z,91.57
2022-09-28T07:09:31.613Z,91.11
2022-09-28T07:11:59.726Z,90.74
2022-09-28T07:14:44.194Z,90.95
2022-09-28T07:17:14.468Z,91.43
2022-09-28T07:19:41.479Z,90.87
2022-09-28T07:22:08.082Z,90.76
2022-09-28T07:24:34.709Z,91.59
2022-09-28T07:27:04.557Z,91.02
2022-09-28T07:29:31.349Z,91.81
2022-09-28T07:31:58.039Z,92.89
2022-09-28T07:34:24.661Z,93.18
2022-09-28T07:36:58.930Z,92.93
2022-09-28T07:39:25.640Z,93.01
2022-09-28T07:41:56.730Z,93.61
2022-09-28T07:44:26.385Z,92.81
2022-09-28T07:46:53.012Z,92.01
2022-09-28T07:49:19.691Z,91.99
2022-09-28T07:51:46.406Z,91.22
2022-09-28T07:54:13.002Z,89.93
2022-09-28T07:56:39.616Z,91.48
2022-09-28T07:59:06.204Z,92.11
2022-09-28T08:01:32.880Z,92.94
2022-09-28T08:03:59.565Z,92.11
2022-09-28T08:06:26.222Z,90.92
2022-09-28T08:08:56.311Z,90.69
2022-09-28T08:11:22.981Z,91.03
2022-09-28T08:13:50.996Z,90.51
2022-09-28T08:16:17.765Z,91.18
2022-09-28T08:18:44.481Z,91.04
2022-09-28T08:21:29.364Z,90.81
2022-09-28T08:23:56.406Z,90.70
2022-09-28T08:26:23.033Z,90.15
2022-09-28T08:28:50.196Z,89.91
2022-09-28T08:31:17.024Z,89.49
2022-09-28T08:33:43.703Z,89.70
2022-09-28T08:36:10.634Z,90.14
2022-09-28T08:38:37.470Z,91.07
2022-09-28T08:41:39.309Z,89.60
2022-09-28T08:44:15.262Z,88.08
2022-09-28T08:46:45.797Z,88.38
2022-09-28T08:49:25.666Z,88.55
2022-09-28T08:51:55.357Z,89.18
2022-09-28T08:54:37.473Z,89.52
2022-09-28T08:57:12.282Z,90.04
2022-09-28T08:59:58.502Z,89.97
2022-09-28T09:02:36.814Z,88.16
2022-09-28T09:05:06.281Z,88.98
2022-09-28T09:07:47.982Z,87.48
2022-09-28T09:10:28.699Z,87.84
2022-09-28T09:13:11.493Z,87.34
2022-09-28T09:15:38.976Z,87.90
2022-09-28T09:18:16.615Z,85.94
2022-09-28T09:21:07.967Z,86.51
2022-09-28T09:23:39.409Z,85.92
2022-09-28T09:26:21.869Z,86.14
2022-09-28T09:29:13.727Z,87.39
2022-09-28T09:32:09.642Z,87.68
2022-09-28T09:35:13.631Z,86.64
2022-09-28T09:38:00.290Z,88.73
2022-09-28T09:40:58.226Z,88.24
2022-09-28T09:43:43.213Z,87.32
2022-09-28T09:46:20.131Z,85.70
2022-09-28T09:48:50.212Z,83.54
2022-09-28T09:51:39.018Z,85.61
2022-09-28T09:54:30.316Z,84.61
2022-09-28T09:57:03.727Z,83.92
2022-09-28T09:59:33.807Z,82.80
2022-09-28T10:02:12.578Z,83.38
2022-09-28T10:04:43.340Z,82.34
2022-09-28T10:07:16.197Z,82.36
2022-09-28T10:09:46.040Z,80.46
2022-09-28T10:12:16.508Z,81.37
2022-09-28T10:14:43.820Z,81.48
2022-09-28T10:17:12.716Z,80.87
2022-09-28T10:19:39.333Z,81.97
2022-09-28T10:22:06.543Z,82.21
2022-09-28T10:24:39.676Z,83.49
2022-09-28T10:27:08.814Z,83.17
2022-09-28T10:29:44.822Z,82.41
2022-09-28T10:32:36.533Z,83.26
2022-09-28T10:35:30.187Z,81.55
2022-09-28T10:38:03.357Z,82.00
2022-09-28T10:40:40.889Z,80.42
2022-09-28T10:43:31.238Z,81.29
2022-09-28T10:46:14.866Z,81.40
2022-09-28T10:49:18.189Z,80.51
2022-09-28T10:51:49.876Z,81.42
2022-09-28T10:54:21.729Z,82.30
2022-09-28T10:56:49.906Z,82.82
2022-09-28T10:59:28.853Z,82.38
2022-09-28T11:02:12.952Z,83.08
2022-09-28T11:04:44.973Z,83.21
2022-09-28T11:07:28.685Z,83.23
2022-09-28T11:09:55.481Z,83.71
2022-09-28T11:12:24.919Z,83.07
2022-09-28T11:15:06.089Z,83.00
2022-09-28T11:17:42.054Z,83.77
2022-09-28T11:20:34.636Z,82.58
2022-09-28T11:23:24.215Z,82.63
2022-09-28T11:26:05.800Z,82.32
2022-09-28T11:28:34.595Z,81.73
2022-09-28T11:31:02.041Z,82.10
2022-09-28T11:33:31.570Z,80.56
2022-09-28T11:36:13.038Z,81.69
2022-09-28T11:38:47.661Z,81.23
2022-09-28T11:41:32.704Z,81.64
2022-09-28T11:44:05.231Z,78.67
2022-09-28T11:46:34.864Z,81.66
2022-09-28T11:49:16.215Z,83.05
2022-09-28T11:51:44.069Z,81.25
2022-09-28T11:54:23.248Z,82.63
2022-09-28T11:56:50.588Z,83.36
2022-09-28T11:59:52.780Z,81.43
2022-09-28T12:02:26.219Z,82.34
2022-09-28T12:04:54.880Z,82.79
2022-09-28T12:07:34.461Z,81.29
2022-09-28T12:10:19.648Z,79.53
2022-09-28T12:12:50.624Z,80.10
2022-09-28T12:15:24.375Z,80.25
2022-09-28T12:17:58.528Z,80.34
2022-09-28T12:20:31.013Z,78.50
2022-09-28T12:23:27.030Z,77.99
2022-09-28T12:25:59.732Z,76.61
2022-09-28T12:28:40.054Z,76.99
2022-09-28T12:31:13.385Z,76.90
2022-09-28T12:33:41.938Z,76.07
2022-09-28T12:36:30.413Z,77.92
2022-09-28T12:39:21.717Z,78.15
2022-09-28T12:41:57.649Z,79.13
2022-09-28T12:44:45.042Z,78.30
2022-09-28T12:47:50.088Z,79.35
2022-09-28T12:50:39.906Z,79.37
2022-09-28T12:53:14.144Z,80.30
2022-09-28T12:55:43.321Z,79.91
2022-09-28T12:58:34.372Z,81.32
2022-09-28T13:01:32.161Z,79.80
2022-09-28T13:04:04.704Z,79.63
2022-09-28T13:06:33.820Z,80.65
2022-09-28T13:09:20.355Z,80.83
2022-09-28T13:12:04.668Z,81.05
2022-09-28T13:15:02.043Z,81.50
2022-09-28T13:17:40.526Z,82.11
2022-09-28T13:20:30.264Z,82.27
2022-09-28T13:23:19.970Z,83.70
2022-09-28T13:25:53.281Z,84.48
2022-09-28T13:28:26.262Z,85.22
2022-09-28T13:30:55.460Z,85.76
2022-09-28T13:33:30.981Z,86.01
2022-09-28T13:35:57.600Z,84.87
2022-09-28T13:38:24.314Z,86.44
2022-09-28T13:41:06.462Z,86.53
2022-09-28T13:43:35.769Z,86.90
2022-09-28T13:46:20.600Z,87.08
2022-09-28T13:48:54.872Z,87.74
2022-09-28T13:51:42.146Z,88.99
2022-09-28T13:54:15.798Z,89.07
2022-09-28T13:57:03.213Z,90.43
2022-09-28T13:59:30.562Z,88.24
2022-09-28T14:02:06.875Z,86.69
2022-09-28T14:05:00.175Z,87.03
2022-09-28T14:10:21.008Z,86.98
2022-09-28T14:12:47.673Z,85.29
2022-09-28T14:15:29.265Z,85.02
2022-09-28T14:18:05.473Z,84.84
2022-09-28T14:20:32.803Z,85.31
2022-09-28T14:23:11.059Z,86.53
2022-09-28T14:26:13.382Z,85.09
2022-09-28T14:28:56.889Z,86.01
2022-09-28T14:31:28.733Z,85.13
2022-09-28T14:34:01.270Z,84.92
2022-09-28T14:36:54.754Z,85.23
2022-09-28T14:39:45.565Z,85.00
2022-09-28T14:42:18.973Z,85.84
2022-09-28T14:45:05.283Z,86.68
2022-09-28T14:47:41.681Z,87.42
2022-09-28T14:50:20.202Z,87.83
2022-09-28T14:52:51.009Z,88.36
2022-09-28T14:55:23.673Z,86.68
2022-09-28T14:57:56.747Z,86.71
2022-09-28T15:00:29.365Z,86.91
2022-09-28T15:03:00.453Z,88.13
2022-09-28T15:05:36.051Z,87.06
2022-09-28T15:08:02.759Z,86.00
2022-09-28T15:10:33.575Z,86.59
2022-09-28T15:13:06.506Z,85.66
2022-09-28T15:15:38.714Z,85.89
2022-09-28T15:18:18.929Z,85.65
2022-09-28T15:20:47.130Z,85.03
2022-09-28T15:23:36.500Z,84.71
2022-09-28T15:26:04.582Z,84.95
2022-09-28T15:28:31.256Z,85.96
2022-09-28T15:31:02.653Z,87.11
2022-09-28T15:33:52.663Z,86.74
2022-09-28T15:36:25.521Z,86.55
2022-09-28T15:38:59.501Z,87.05
2022-09-28T15:41:26.632Z,87.28
2022-09-28T15:44:11.489Z,88.35
2022-09-28T15:46:40.213Z,88.30
2022-09-28T15:49:08.649Z,88.24
2022-09-28T15:51:47.439Z,87.73
2022-09-28T15:54:18.317Z,86.93
2022-09-28T15:57:02.708Z,87.47
2022-09-28T15:59:34.807Z,87.31
2022-09-28T16:02:13.255Z,88.38
2022-09-28T16:04:48.198Z,88.98
2022-09-28T16:07:35.761Z,89.67
2022-09-28T16:10:14.152Z,89.38
2022-09-28T16:12:49.420Z,90.19
2022-09-28T16:15:20.436Z,89.54
2022-09-28T16:18:13.058Z,90.26
2022-09-28T16:20:40.821Z,90.34
2022-09-28T16:23:16.270Z,90.12
2022-09-28T16:25:55.078Z,90.67
2022-09-28T16:28:48.962Z,90.31
2022-09-28T16:31:15.606Z,90.50
2022-09-28T16:33:54.160Z,90.25
2022-09-28T16:36:25.068Z,90.87
2022-09-28T16:38:54.429Z,90.22
2022-09-28T16:41:23.675Z,90.40
2022-09-28T16:43:51.856Z,90.45
2022-09-28T16:46:18.930Z,89.96
2022-09-28T16:48:49.799Z,90.66
2022-09-28T16:51:22.074Z,91.17
2022-09-28T16:54:07.746Z,90.85
2022-09-28T16:56:35.442Z,90.92
2022-09-28T16:59:02.428Z,90.52
2022-09-28T17:01:31.924Z,91.09
2022-09-28T17:03:58.774Z,91.02
2022-09-28T17:06:25.581Z,91.35
2022-09-28T17:08:52.748Z,91.38
2022-09-28T17:11:24.628Z,91.03
2022-09-28T17:13:52.010Z,91.23
2022-09-28T17:16:37.133Z,91.10
2022-09-28T17:19:21.142Z,91.91
2022-09-28T17:21:48.242Z,91.43
2022-09-28T17:24:14.925Z,91.30
2022-09-28T17:26:44.501Z,91.11
2022-09-28T17:29:14.692Z,91.93
2022-09-28T17:31:45.781Z,93.00
2022-09-28T17:34:15.267Z,92.94
2022-09-28T17:36:42.837Z,93.92
2022-09-28T17:39:15.505Z,93.45
2022-09-28T17:41:42.162Z,92.64
2022-09-28T17:44:09.093Z,91.71
2022-09-28T17:46:37.861Z,92.06
2022-09-28T17:49:06.182Z,92.95
2022-09-28T17:51:35.004Z,93.43
2022-09-28T17:54:01.904Z,93.67
2022-09-28T17:56:32.070Z,92.69
2022-09-28T17:59:01.237Z,92.89
2022-09-28T18:01:34.110Z,92.54
2022-09-28T18:04:02.285Z,92.07
2022-09-28T18:06:29.137Z,92.04
2022-09-28T18:08:55.773Z,92.18
2022-09-28T18:11:22.691Z,93.18
2022-09-28T18:13:49.297Z,92.74
2022-09-28T18:16:16.115Z,93.79
2022-09-28T18:18:42.828Z,94.07
2022-09-28T18:21:09.555Z,93.96
2022-09-28T18:23:37.667Z,93.65
2022-09-28T18:26:05.535Z,93.63
2022-09-28T18:28:32.125Z,93.80
2022-09-28T18:30:59.027Z,94.01
2022-09-28T18:33:25.766Z,94.17
2022-09-28T18:35:53.922Z,94.51
2022-09-28T18:38:20.792Z,93.44
2022-09-28T18:40:48.403Z,94.74
2022-09-28T18:43:15.440Z,95.15
2022-09-28T18:45:42.252Z,94.34
2022-09-28T18:48:08.935Z,95.02
2022-09-28T18:50:35.585Z,94.54
2022-09-28T18:53:14.508Z,93.70
2022-09-28T18:55:42.244Z,94.50
2022-09-28T18:58:10.117Z,94.92
2022-09-28T19:00:41.509Z,94.89
2022-09-28T19:03:11.143Z,94.25
2022-09-28T19:05:44.380Z,94.17
2022-09-28T19:08:10.972Z,94.51
2022-09-28T19:10:37.690Z,94.47
2022-09-28T19:13:04.316Z,93.85
2022-09-28T19:15:32.282Z,94.14
2022-09-28T19:17:58.966Z,94.01
2022-09-28T19:20:25.589Z,93.91
2022-09-28T19:22:52.211Z,94.01
2022-09-28T19:25:19.288Z,93.77
2022-09-28T19:27:46.345Z,93.60
2022-09-28T19:30:13.197Z,93.97
2022-09-28T19:32:39.794Z,93.63
2022-09-28T19:35:06.423Z,92.73
2022-09-28T19:37:35.505Z,93.16
2022-09-28T19:40:05.882Z,93.80
2022-09-28T19:42:32.944Z,93.77
2022-09-28T19:44:59.577Z,93.68
2022-09-28T19:47:26.160Z,93.82
2022-09-28T19:49:52.917Z,94.00
2022-09-28T19:52:19.549Z,94.12
2022-09-28T19:54:59.981Z,94.55
2022-09-28T19:57:29.601Z,95.29
2022-09-28T20:00:01.775Z,95.65
2022-09-28T20:02:29.036Z,95.70
2022-09-28T20:04:55.748Z,95.94
2022-09-28T20:07:22.339Z,95.83
2022-09-28T20:09:48.973Z,95.14
2022-09-28T20:12:15.593Z,95.36
2022-09-28T20:14:42.190Z,95.63
2022-09-28T20:17:09.542Z,96.02
2022-09-28T20:19:36.204Z,95.43
2022-09-28T20:22:03.294Z,95.62
2022-09-28T20:24:31.383Z,96.25
2022-09-28T20:26:58.276Z,95.58
2022-09-28T20:29:24.997Z,95.68
2022-09-28T20:31:52.033Z,95.96
2022-09-28T20:34:18.891Z,95.40
2022-09-28T20:36:45.648Z,95.13
2022-09-28T20:39:13.320Z,95.43
2022-09-28T20:41:40.384Z,95.74
2022-09-28T20:44:07.425Z,94.85
2022-09-28T20:46:35.482Z,94.96
2022-09-28T20:49:02.594Z,95.37
2022-09-28T20:51:29.223Z,95.41
2022-09-28T20:53:57.678Z,95.36
2022-09-28T20:56:29.385Z,95.89
2022-09-28T20:58:56.979Z,95.88
2022-09-28T21:01:30.671Z,95.31
2022-09-28T21:03:59.129Z,95.65
2022-09-28T21:06:28.790Z,96.00
2022-09-28T21:08:55.482Z,95.34
2022-09-28T21:11:23.694Z,96.20
2022-09-28T21:13:55.187Z,96.06
2022-09-28T21:16:21.817Z,96.13
2022-09-28T21:18:48.462Z,95.97
2022-09-28T21:21:17.684Z,95.80
2022-09-28T21:23:47.961Z,96.11
2022-09-28T21:26:18.960Z,96.55
2022-09-28T21:28:46.092Z,96.46
2022-09-28T21:31:12.986Z,96.08
2022-09-28T21:33:39.653Z,95.86
2022-09-28T21:36:07.829Z,95.75
2022-09-28T21:38:34.827Z,95.32
2022-09-28T21:41:01.761Z,95.53
2022-09-28T21:43:29.860Z,96.13
2022-09-28T21:45:57.735Z,95.98
2022-09-28T21:48:26.797Z,95.66
2022-09-28T21:51:00.263Z,95.81
2022-09-28T21:53:29.263Z,96.41
2022-09-28T21:55:57.020Z,96.27
2022-09-28T21:58:25.887Z,96.10
2022-09-28T22:00:58.268Z,95.98
2022-09-28T22:03:25.860Z,96.37
2022-09-28T22:05:52.553Z,96.59
2022-09-28T22:08:20.169Z,96.29
2022-09-28T22:10:51.693Z,96.46
2022-09-28T22:13:18.320Z,96.77
2022-09-28T22:15:44.940Z,96.55
2022-09-28T22:18:11.645Z,96.30
2022-09-28T22:20:38.232Z,96.92
2022-09-28T22:23:04.879Z,96.69
2022-09-28T22:25:31.519Z,96.80
2022-09-28T22:27:58.130Z,96.90
2022-09-28T22:30:24.763Z,96.84
2022-09-28T22:32:51.421Z,96.75
2022-09-28T22:35:18.056Z,97.35
2022-09-28T22:37:44.739Z,97.76
2022-09-28T22:40:12.906Z,97.79
2022-09-28T22:42:39.745Z,97.52
2022-09-28T22:45:06.849Z,97.40
2022-09-28T22:47:33.515Z,97.13
2022-09-28T22:50:00.476Z,96.94
2022-09-28T22:52:27.138Z,97.37
2022-09-28T22:54:54.003Z,97.20
2022-09-28T22:57:20.646Z,97.09
2022-09-28T22:59:47.256Z,96.94
2022-09-28T23:02:13.896Z,96.99
2022-09-28T23:04:40.498Z,97.18
2022-09-28T23:07:07.133Z,97.30
2022-09-28T23:09:33.741Z,96.99
2022-09-28T23:12:00.543Z,97.53
2022-09-28T23:14:27.200Z,97.52
2022-09-28T23:16:53.835Z,98.21
2022-09-28T23:19:20.598Z,98.03
2022-09-28T23:21:47.407Z,97.64
2022-09-28T23:24:14.040Z,97.57
2022-09-28T23:26:40.819Z,97.41
2022-09-28T23:29:07.450Z,97.41
2022-09-28T23:31:34.281Z,96.80
2022-09-28T23:34:03.266Z,96.94
2022-09-28T23:36:30.157Z,96.90
2022-09-28T23:38:56.970Z,96.82
2022-09-28T23:41:23.755Z,96.83
2022-09-28T23:43:50.435Z,96.93
2022-09-28T23:46:20.719Z,97.09
2022-09-28T23:48:48.328Z,97.08
2022-09-28T23:51:14.972Z,97.40
2022-09-28T23:53:41.612Z,97.80
2022-09-28T23:56:08.253Z,97.76
2022-09-28T23:58:34.903Z,97.48
